createdAt,value
2018-12-25T00:00:54.599Z,0.00
2018-12-25T00:01:54.614Z,0.00
2018-12-25T00:02:54.576Z,0.00
2018-12-25T00:03:54.567Z,0.00
2018-12-25T00:04:54.554Z,0.00
2018-12-25T00:05:54.542Z,0.00
2018-12-25T00:06:54.537Z,0.00
2018-12-25T00:07:54.550Z,0.00
2018-12-25T00:08:54.511Z,0.00
2018-12-25T00:09:54.501Z,0.00
2018-12-25T00:10:54.490Z,0.00
2018-12-25T00:11:54.482Z,0.00
2018-12-25T00:12:54.467Z,0.00
2018-12-25T00:13:54.475Z,0.00
2018-12-25T00:14:54.448Z,0.00
2018-12-25T00:15:54.436Z,0.00
2018-12-25T00:16:54.440Z,0.00
2018-12-25T00:17:54.414Z,0.00
2018-12-25T00:18:54.465Z,0.00
2018-12-25T00:19:54.392Z,0.00
2018-12-25T00:20:54.388Z,0.00
2018-12-25T00:21:54.372Z,0.00
2018-12-25T00:22:54.363Z,0.00
2018-12-25T00:23:54.352Z,0.00
2018-12-25T00:24:54.357Z,0.00
2018-12-25T00:25:54.326Z,0.00
2018-12-25T00:26:54.318Z,0.00
2018-12-25T00:27:54.324Z,0.00
2018-12-25T00:28:54.297Z,0.00
2018-12-25T00:29:54.284Z,0.00
2018-12-25T00:30:54.276Z,0.00
2018-12-25T00:31:54.393Z,0.00
2018-12-25T00:32:54.266Z,0.00
2018-12-25T00:33:54.258Z,0.00
2018-12-25T00:34:54.231Z,0.00
2018-12-25T00:35:54.222Z,0.00
2018-12-25T00:36:54.211Z,0.00
2018-12-25T00:37:54.200Z,0.00
2018-12-25T00:38:54.210Z,0.00
2018-12-25T00:39:54.209Z,0.00
2018-12-25T00:40:54.167Z,0.00
2018-12-25T00:41:54.158Z,0.00
2018-12-25T00:42:54.147Z,0.00
2018-12-25T00:43:54.133Z,0.00
2018-12-25T00:44:54.120Z,0.00
2018-12-25T00:45:54.146Z,0.00
2018-12-25T00:46:54.101Z,0.00
2018-12-25T00:47:54.092Z,0.00
2018-12-25T00:48:54.081Z,0.00
2018-12-25T00:49:54.068Z,0.00
2018-12-25T00:50:54.059Z,0.00
2018-12-25T00:51:54.061Z,0.00
2018-12-25T00:52:54.038Z,0.00
2018-12-25T00:53:54.029Z,0.00
2018-12-25T00:54:54.017Z,0.00
2018-12-25T00:55:54.025Z,0.00
2018-12-25T00:56:53.995Z,0.00
2018-12-25T00:57:53.987Z,0.00
2018-12-25T00:58:53.974Z,0.00
2018-12-25T00:59:53.962Z,0.00
2018-12-25T01:00:53.949Z,0.00
2018-12-25T01:01:53.957Z,0.00
2018-12-25T01:02:53.948Z,0.00
2018-12-25T01:03:53.920Z,0.00
2018-12-25T01:04:53.908Z,0.00
2018-12-25T01:05:53.900Z,0.00
2018-12-25T01:06:53.904Z,0.00
2018-12-25T01:07:53.874Z,0.00
2018-12-25T01:08:53.866Z,0.00
2018-12-25T01:09:53.852Z,0.00
2018-12-25T01:10:53.845Z,0.00
2018-12-25T01:11:53.848Z,0.00
2018-12-25T01:12:53.821Z,0.00
2018-12-25T01:13:53.811Z,0.00
2018-12-25T01:14:54.501Z,0.00
2018-12-25T01:15:53.788Z,0.00
2018-12-25T01:16:53.818Z,0.00
2018-12-25T01:17:53.767Z,0.00
2018-12-25T01:18:53.760Z,0.00
2018-12-25T01:19:53.747Z,0.00
2018-12-25T01:20:53.738Z,0.00
2018-12-25T01:21:53.724Z,0.00
2018-12-25T01:22:53.730Z,0.00
2018-12-25T01:23:53.705Z,0.00
2018-12-25T01:24:53.695Z,0.00
2018-12-25T01:25:53.686Z,0.00
2018-12-25T01:26:53.672Z,0.00
2018-12-25T01:27:53.675Z,0.00
2018-12-25T01:28:53.649Z,0.00
2018-12-25T01:29:53.727Z,0.00
2018-12-25T01:30:53.648Z,0.00
2018-12-25T01:31:53.619Z,0.00
2018-12-25T01:32:53.605Z,0.00
2018-12-25T01:33:53.594Z,0.00
2018-12-25T01:34:53.583Z,0.00
2018-12-25T01:35:53.578Z,0.00
2018-12-25T01:36:53.577Z,0.00
2018-12-25T01:37:53.553Z,0.00
2018-12-25T01:38:53.542Z,0.00
2018-12-25T01:39:53.528Z,0.00
2018-12-25T01:40:53.527Z,0.00
2018-12-25T01:41:53.523Z,0.00
2018-12-25T01:42:53.497Z,0.00
2018-12-25T01:43:53.488Z,0.00
2018-12-25T01:44:53.486Z,0.00
2018-12-25T01:45:53.480Z,0.00
2018-12-25T01:46:53.553Z,0.00
2018-12-25T01:47:53.445Z,0.00
2018-12-25T01:48:53.448Z,0.00
2018-12-25T01:49:53.422Z,0.00
2018-12-25T01:50:53.430Z,0.00
2018-12-25T01:51:53.432Z,0.00
2018-12-25T01:52:53.392Z,0.00
2018-12-25T01:53:53.380Z,0.00
2018-12-25T01:54:53.368Z,0.00
2018-12-25T01:55:53.356Z,0.00
2018-12-25T01:56:53.348Z,0.00
2018-12-25T01:57:53.371Z,0.00
2018-12-25T01:58:53.325Z,0.00
2018-12-25T01:59:53.311Z,0.00
2018-12-25T02:00:53.302Z,0.00
2018-12-25T02:01:53.293Z,0.00
2018-12-25T02:02:56.590Z,0.00
2018-12-25T02:03:53.312Z,0.00
2018-12-25T02:04:53.259Z,0.00
2018-12-25T02:05:53.248Z,0.00
2018-12-25T02:06:53.239Z,0.00
2018-12-25T02:07:53.229Z,0.00
2018-12-25T02:08:53.218Z,0.00
2018-12-25T02:09:53.226Z,0.00
2018-12-25T02:10:53.194Z,0.00
2018-12-25T02:11:53.186Z,0.00
2018-12-25T02:12:53.173Z,0.00
2018-12-25T02:13:53.176Z,0.00
2018-12-25T02:14:53.150Z,0.00
2018-12-25T02:15:53.139Z,0.00
2018-12-25T02:16:53.133Z,0.00
2018-12-25T02:17:53.120Z,0.00
2018-12-25T02:18:53.123Z,0.00
2018-12-25T02:19:53.097Z,0.00
2018-12-25T02:20:53.087Z,0.00
2018-12-25T02:21:53.074Z,0.00
2018-12-25T02:22:53.064Z,0.00
2018-12-25T02:23:53.080Z,0.00
2018-12-25T02:24:53.044Z,0.00
2018-12-25T02:25:53.035Z,0.00
2018-12-25T02:26:53.027Z,0.00
2018-12-25T02:27:53.013Z,0.00
2018-12-25T02:28:52.999Z,0.00
2018-12-25T02:29:53.008Z,0.00
2018-12-25T02:30:52.983Z,0.00
2018-12-25T02:31:52.974Z,0.00
2018-12-25T02:32:52.957Z,0.00
2018-12-25T02:33:52.950Z,0.00
2018-12-25T02:34:52.959Z,0.00
2018-12-25T02:35:52.934Z,0.00
2018-12-25T02:36:52.919Z,0.00
2018-12-25T02:37:52.906Z,0.00
2018-12-25T02:38:52.892Z,0.00
2018-12-25T02:39:52.884Z,0.00
2018-12-25T02:40:52.907Z,0.00
2018-12-25T02:41:52.861Z,0.00
2018-12-25T02:42:52.853Z,0.00
2018-12-25T02:43:52.841Z,0.00
2018-12-25T02:44:52.827Z,0.00
2018-12-25T02:45:52.819Z,0.00
2018-12-25T02:46:52.826Z,0.00
2018-12-25T02:47:52.798Z,0.00
2018-12-25T02:48:52.787Z,0.00
2018-12-25T02:49:52.775Z,0.00
2018-12-25T02:50:52.804Z,0.00
2018-12-25T02:51:52.752Z,0.00
2018-12-25T02:52:52.744Z,0.00
2018-12-25T02:53:52.731Z,0.00
2018-12-25T02:54:52.720Z,0.00
2018-12-25T02:55:52.711Z,0.00
2018-12-25T02:56:52.726Z,0.00
2018-12-25T02:57:52.698Z,0.00
2018-12-25T02:58:52.682Z,0.00
2018-12-25T02:59:52.667Z,0.00
2018-12-25T03:00:52.656Z,0.00
2018-12-25T03:01:52.682Z,0.00
2018-12-25T03:02:52.638Z,0.00
2018-12-25T03:03:52.627Z,0.00
2018-12-25T03:04:52.615Z,0.00
2018-12-25T03:05:52.606Z,0.00
2018-12-25T03:06:52.594Z,0.00
2018-12-25T03:07:52.597Z,0.00
2018-12-25T03:08:52.573Z,0.00
2018-12-25T03:09:52.561Z,0.00
2018-12-25T03:10:52.551Z,0.00
2018-12-25T03:11:52.540Z,0.00
2018-12-25T03:12:52.553Z,0.00
2018-12-25T03:13:52.521Z,0.00
2018-12-25T03:14:52.508Z,0.00
2018-12-25T03:15:52.497Z,0.00
2018-12-25T03:16:52.486Z,0.00
2018-12-25T03:17:52.488Z,0.00
2018-12-25T03:18:52.465Z,0.00
2018-12-25T03:19:59.896Z,0.00
2018-12-25T03:20:53.443Z,0.00
2018-12-25T03:21:52.430Z,0.00
2018-12-25T03:22:52.437Z,0.00
2018-12-25T03:23:52.446Z,0.00
2018-12-25T03:24:52.401Z,0.00
2018-12-25T03:25:52.393Z,0.00
2018-12-25T03:26:52.377Z,0.00
2018-12-25T03:27:52.364Z,0.00
2018-12-25T03:28:52.356Z,0.00
2018-12-25T03:29:52.362Z,0.00
2018-12-25T03:30:52.333Z,0.00
2018-12-25T03:31:52.485Z,0.00
2018-12-25T03:32:52.315Z,0.00
2018-12-25T03:33:52.315Z,0.00
2018-12-25T03:34:52.289Z,0.00
2018-12-25T03:35:52.278Z,0.00
2018-12-25T03:36:52.268Z,0.00
2018-12-25T03:37:52.258Z,0.00
2018-12-25T03:38:52.320Z,0.00
2018-12-25T03:39:52.238Z,0.00
2018-12-25T03:40:52.242Z,0.00
2018-12-25T03:41:52.232Z,0.00
2018-12-25T03:42:52.205Z,0.00
2018-12-25T03:43:52.192Z,0.00
2018-12-25T03:44:52.188Z,0.00
2018-12-25T03:45:52.189Z,0.00
2018-12-25T03:46:52.159Z,0.00
2018-12-25T03:47:52.152Z,0.00
2018-12-25T03:48:52.144Z,0.00
2018-12-25T03:49:52.132Z,0.00
2018-12-25T03:50:52.151Z,0.00
2018-12-25T03:51:52.109Z,0.00
2018-12-25T03:52:52.103Z,0.00
2018-12-25T03:53:52.086Z,0.00
2018-12-25T03:54:52.076Z,0.00
2018-12-25T03:55:52.067Z,0.00
2018-12-25T03:56:52.070Z,0.00
2018-12-25T03:57:52.043Z,0.00
2018-12-25T03:58:52.032Z,0.00
2018-12-25T03:59:52.020Z,0.00
2018-12-25T04:00:52.012Z,0.00
2018-12-25T04:01:52.013Z,0.00
2018-12-25T04:02:51.989Z,0.00
2018-12-25T04:03:51.982Z,0.00
2018-12-25T04:04:51.967Z,0.00
2018-12-25T04:05:51.957Z,0.00
2018-12-25T04:06:51.987Z,0.00
2018-12-25T04:07:51.935Z,0.00
2018-12-25T04:08:51.927Z,0.00
2018-12-25T04:09:51.911Z,0.00
2018-12-25T04:10:51.902Z,0.00
2018-12-25T04:11:51.891Z,0.00
2018-12-25T04:12:51.899Z,0.00
2018-12-25T04:13:51.873Z,0.00
2018-12-25T04:14:51.963Z,0.00
2018-12-25T04:15:51.855Z,0.00
2018-12-25T04:16:51.852Z,0.00
2018-12-25T04:17:51.830Z,0.00
2018-12-25T04:18:51.825Z,0.00
2018-12-25T04:19:51.807Z,0.00
2018-12-25T04:20:51.820Z,0.00
2018-12-25T04:21:51.783Z,0.00
2018-12-25T04:22:51.776Z,0.00
2018-12-25T04:23:51.765Z,0.00
2018-12-25T04:24:51.747Z,0.00
2018-12-25T04:25:51.740Z,0.00
2018-12-25T04:26:51.748Z,0.00
2018-12-25T04:27:51.757Z,0.00
2018-12-25T04:28:51.709Z,0.00
2018-12-25T04:29:51.699Z,0.00
2018-12-25T04:30:51.690Z,0.00
2018-12-25T04:31:51.677Z,0.00
2018-12-25T04:32:51.666Z,0.00
2018-12-25T04:33:51.672Z,0.00
2018-12-25T04:34:51.647Z,0.00
2018-12-25T04:35:51.680Z,0.00
2018-12-25T04:36:51.622Z,0.00
2018-12-25T04:37:51.614Z,0.00
2018-12-25T04:38:51.600Z,0.00
2018-12-25T04:39:51.592Z,0.00
2018-12-25T04:40:51.581Z,0.00
2018-12-25T04:41:51.615Z,0.00
2018-12-25T04:42:51.566Z,0.00
2018-12-25T04:43:51.550Z,0.00
2018-12-25T04:44:51.536Z,0.00
2018-12-25T04:45:51.527Z,0.00
2018-12-25T04:46:51.515Z,0.00
2018-12-25T04:47:51.519Z,0.00
2018-12-25T04:48:51.510Z,0.00
2018-12-25T04:49:51.481Z,0.00
2018-12-25T04:50:51.472Z,0.00
2018-12-25T04:51:51.475Z,0.00
2018-12-25T04:52:51.448Z,0.00
2018-12-25T04:53:51.437Z,0.00
2018-12-25T04:54:51.429Z,0.00
2018-12-25T04:55:51.416Z,0.00
2018-12-25T04:56:51.424Z,0.00
2018-12-25T04:57:51.395Z,0.00
2018-12-25T04:58:51.387Z,0.00
2018-12-25T04:59:51.410Z,0.00
2018-12-25T05:00:51.363Z,0.00
2018-12-25T05:01:51.353Z,0.00
2018-12-25T05:02:51.340Z,0.00
2018-12-25T05:03:51.331Z,0.00
2018-12-25T05:04:51.320Z,0.00
2018-12-25T05:05:51.337Z,0.00
2018-12-25T05:06:51.300Z,0.00
2018-12-25T05:07:51.288Z,0.00
2018-12-25T05:08:51.279Z,0.00
2018-12-25T05:09:51.265Z,0.00
2018-12-25T05:10:51.259Z,0.00
2018-12-25T05:11:51.259Z,0.00
2018-12-25T05:12:51.236Z,0.00
2018-12-25T05:13:51.224Z,0.00
2018-12-25T05:14:51.225Z,0.00
2018-12-25T05:15:51.203Z,0.00
2018-12-25T05:16:51.191Z,0.00
2018-12-25T05:17:51.195Z,0.00
2018-12-25T05:18:51.171Z,0.00
2018-12-25T05:19:51.155Z,0.00
2018-12-25T05:20:51.147Z,0.00
2018-12-25T05:21:51.135Z,0.00
2018-12-25T05:22:51.140Z,0.00
2018-12-25T05:23:51.114Z,0.00
2018-12-25T05:24:51.116Z,0.00
2018-12-25T05:25:51.093Z,0.00
2018-12-25T05:26:51.085Z,0.00
2018-12-25T05:27:51.071Z,0.00
2018-12-25T05:28:51.062Z,0.00
2018-12-25T05:29:51.072Z,0.00
2018-12-25T05:30:51.042Z,0.00
2018-12-25T05:31:51.030Z,0.00
2018-12-25T05:32:51.019Z,0.00
2018-12-25T05:33:51.012Z,0.00
2018-12-25T05:34:50.996Z,0.00
2018-12-25T05:35:51.006Z,0.00
2018-12-25T05:36:50.984Z,0.00
2018-12-25T05:37:50.967Z,0.00
2018-12-25T05:38:50.952Z,0.00
2018-12-25T05:39:50.957Z,0.00
2018-12-25T05:40:50.933Z,0.00
2018-12-25T05:41:50.939Z,0.00
2018-12-25T05:42:50.911Z,0.00
2018-12-25T05:43:50.899Z,0.00
2018-12-25T05:44:50.905Z,0.00
2018-12-25T05:45:50.918Z,0.00
2018-12-25T05:46:50.866Z,0.00
2018-12-25T05:47:50.858Z,0.00
2018-12-25T05:48:50.845Z,0.00
2018-12-25T05:49:50.836Z,0.00
2018-12-25T05:50:50.826Z,0.00
2018-12-25T05:51:50.829Z,0.00
2018-12-25T05:52:50.804Z,0.00
2018-12-25T05:53:50.794Z,0.00
2018-12-25T05:54:50.784Z,0.00
2018-12-25T05:55:50.772Z,0.00
2018-12-25T05:56:50.773Z,0.00
2018-12-25T05:57:50.748Z,0.00
2018-12-25T05:58:50.741Z,0.00
2018-12-25T05:59:50.728Z,0.00
2018-12-25T06:00:50.732Z,0.00
2018-12-25T06:01:50.708Z,0.00
2018-12-25T06:02:50.698Z,0.00
2018-12-25T06:03:50.685Z,0.00
2018-12-25T06:04:50.690Z,0.00
2018-12-25T06:05:50.662Z,0.00
2018-12-25T06:06:50.651Z,0.00
2018-12-25T06:07:50.641Z,0.00
2018-12-25T06:08:50.632Z,0.00
2018-12-25T06:09:50.636Z,0.00
2018-12-25T06:10:50.607Z,0.00
2018-12-25T06:11:50.625Z,0.00
2018-12-25T06:12:50.590Z,0.00
2018-12-25T06:13:50.578Z,0.00
2018-12-25T06:14:50.565Z,0.00
2018-12-25T06:15:50.556Z,0.00
2018-12-25T06:16:50.546Z,0.00
2018-12-25T06:17:50.553Z,0.00
2018-12-25T06:18:50.526Z,0.00
2018-12-25T06:19:50.510Z,0.00
2018-12-25T06:20:55.109Z,0.00
2018-12-25T06:21:50.494Z,0.00
2018-12-25T06:22:50.516Z,0.00
2018-12-25T06:23:50.468Z,0.00
2018-12-25T06:24:50.459Z,0.00
2018-12-25T06:25:50.449Z,0.00
2018-12-25T06:26:50.440Z,0.00
2018-12-25T06:27:50.424Z,0.00
2018-12-25T06:28:50.431Z,0.00
2018-12-25T06:29:50.403Z,0.00
2018-12-25T06:30:50.395Z,0.00
2018-12-25T06:31:50.381Z,0.00
2018-12-25T06:32:50.373Z,0.00
2018-12-25T06:33:50.373Z,0.00
2018-12-25T06:34:50.348Z,0.00
2018-12-25T06:35:50.356Z,0.00
2018-12-25T06:36:50.328Z,0.00
2018-12-25T06:37:50.316Z,0.00
2018-12-25T06:38:50.312Z,0.00
2018-12-25T06:39:50.295Z,0.00
2018-12-25T06:40:50.299Z,0.00
2018-12-25T06:41:50.273Z,0.00
2018-12-25T06:42:50.262Z,0.00
2018-12-25T06:43:50.256Z,0.00
2018-12-25T06:44:50.265Z,0.00
2018-12-25T06:45:50.233Z,0.00
2018-12-25T06:46:50.221Z,0.00
2018-12-25T06:47:50.212Z,0.00
2018-12-25T06:48:50.199Z,0.00
2018-12-25T06:49:50.187Z,0.00
2018-12-25T06:50:50.191Z,0.00
2018-12-25T06:51:50.165Z,0.00
2018-12-25T06:52:50.158Z,0.00
2018-12-25T06:53:50.163Z,0.00
2018-12-25T06:54:50.147Z,0.00
2018-12-25T06:55:50.122Z,0.00
2018-12-25T06:56:50.114Z,0.00
2018-12-25T06:57:50.100Z,0.00
2018-12-25T06:58:50.089Z,0.00
2018-12-25T06:59:50.099Z,4.00
2018-12-25T07:00:50.070Z,4.00
2018-12-25T07:01:50.060Z,4.00
2018-12-25T07:02:50.048Z,4.00
2018-12-25T07:03:50.039Z,4.00
2018-12-25T07:04:50.029Z,4.00
2018-12-25T07:05:50.043Z,4.00
2018-12-25T07:06:50.593Z,8.00
2018-12-25T07:07:49.993Z,4.00
2018-12-25T07:08:49.996Z,8.00
2018-12-25T07:09:49.971Z,8.00
2018-12-25T07:10:49.962Z,8.00
2018-12-25T07:11:49.967Z,12.00
2018-12-25T07:12:49.941Z,16.00
2018-12-25T07:13:49.937Z,20.00
2018-12-25T07:14:49.917Z,24.00
2018-12-25T07:15:49.913Z,28.00
2018-12-25T07:16:49.916Z,32.00
2018-12-25T07:17:49.888Z,40.00
2018-12-25T07:18:49.875Z,44.00
2018-12-25T07:19:49.866Z,52.00
2018-12-25T07:20:49.879Z,60.00
2018-12-25T07:21:49.841Z,68.00
2018-12-25T07:22:49.833Z,72.00
2018-12-25T07:23:49.822Z,72.00
2018-12-25T07:24:49.809Z,80.00
2018-12-25T07:25:49.797Z,96.00
2018-12-25T07:26:49.835Z,104.00
2018-12-25T07:27:49.777Z,100.00
2018-12-25T07:28:49.767Z,108.00
2018-12-25T07:29:50.366Z,132.00
2018-12-25T07:30:49.746Z,160.00
2018-12-25T07:31:49.734Z,176.00
2018-12-25T07:32:49.763Z,196.00
2018-12-25T07:33:49.715Z,212.00
2018-12-25T07:34:49.704Z,224.00
2018-12-25T07:35:49.719Z,240.00
2018-12-25T07:36:49.679Z,260.00
2018-12-25T07:37:49.674Z,284.00
2018-12-25T07:38:49.660Z,304.00
2018-12-25T07:39:49.650Z,324.00
2018-12-25T07:40:49.640Z,340.00
2018-12-25T07:41:49.659Z,364.00
2018-12-25T07:42:49.617Z,352.00
2018-12-25T07:43:49.612Z,328.00
2018-12-25T07:44:49.592Z,316.00
2018-12-25T07:45:49.587Z,324.00
2018-12-25T07:46:49.573Z,340.00
2018-12-25T07:47:49.597Z,344.00
2018-12-25T07:48:49.550Z,344.00
2018-12-25T07:49:49.541Z,360.00
2018-12-25T07:50:49.528Z,372.00
2018-12-25T07:51:49.519Z,384.00
2018-12-25T07:52:49.509Z,376.00
2018-12-25T07:53:49.515Z,392.00
2018-12-25T07:54:49.496Z,408.00
2018-12-25T07:55:49.477Z,416.00
2018-12-25T07:56:49.466Z,440.00
2018-12-25T07:57:49.467Z,464.00
2018-12-25T07:58:49.444Z,468.00
2018-12-25T07:59:49.434Z,488.00
2018-12-25T08:00:49.424Z,520.00
2018-12-25T08:01:49.412Z,584.00
2018-12-25T08:02:49.416Z,648.00
2018-12-25T08:03:49.390Z,716.00
2018-12-25T08:04:49.383Z,740.00
2018-12-25T08:05:49.369Z,792.00
2018-12-25T08:06:49.356Z,864.00
2018-12-25T08:07:49.362Z,944.00
2018-12-25T08:08:49.336Z,1016.00
2018-12-25T08:09:49.326Z,1068.00
2018-12-25T08:10:49.313Z,1156.00
2018-12-25T08:11:49.339Z,1272.00
2018-12-25T08:12:49.291Z,1352.00
2018-12-25T08:13:49.283Z,1428.00
2018-12-25T08:14:49.272Z,1368.00
2018-12-25T08:15:49.261Z,1300.00
2018-12-25T08:16:49.247Z,1328.00
2018-12-25T08:17:49.267Z,1388.00
2018-12-25T08:18:49.227Z,1508.00
2018-12-25T08:19:49.217Z,1672.00
2018-12-25T08:20:49.207Z,1744.00
2018-12-25T08:21:49.194Z,1744.00
2018-12-25T08:22:49.184Z,1908.00
2018-12-25T08:23:49.190Z,2096.00
2018-12-25T08:24:49.164Z,2160.00
2018-12-25T08:25:49.153Z,2104.00
2018-12-25T08:26:49.139Z,2148.00
2018-12-25T08:27:49.169Z,2308.00
2018-12-25T08:28:49.120Z,2476.00
2018-12-25T08:29:49.111Z,2544.00
2018-12-25T08:30:49.100Z,2424.00
2018-12-25T08:31:49.089Z,2288.00
2018-12-25T08:32:49.079Z,2152.00
2018-12-25T08:33:49.079Z,2104.00
2018-12-25T08:34:49.056Z,2192.00
2018-12-25T08:35:49.043Z,2308.00
2018-12-25T08:36:49.051Z,2204.00
2018-12-25T08:37:49.021Z,2072.00
2018-12-25T08:38:49.011Z,2124.00
2018-12-25T08:39:49.001Z,2180.00
2018-12-25T08:40:49.011Z,2100.00
2018-12-25T08:41:48.980Z,2104.00
2018-12-25T08:42:48.974Z,2152.00
2018-12-25T08:43:48.960Z,2240.00
2018-12-25T08:44:48.949Z,2396.00
2018-12-25T08:45:48.935Z,2400.00
2018-12-25T08:46:48.942Z,2312.00
2018-12-25T08:47:48.913Z,2276.00
2018-12-25T08:48:48.905Z,2212.00
2018-12-25T08:49:50.234Z,2244.00
2018-12-25T08:50:48.910Z,2204.00
2018-12-25T08:51:48.873Z,2136.00
2018-12-25T08:52:48.859Z,2184.00
2018-12-25T08:53:48.852Z,2360.00
2018-12-25T08:54:48.837Z,2428.00
2018-12-25T08:55:48.845Z,2452.00
2018-12-25T08:56:48.817Z,2600.00
2018-12-25T08:57:48.806Z,2852.00
2018-12-25T08:58:48.797Z,3088.00
2018-12-25T08:59:48.802Z,3276.00
2018-12-25T09:00:48.773Z,3424.00
2018-12-25T09:01:48.762Z,3404.00
2018-12-25T09:02:48.773Z,3276.00
2018-12-25T09:03:48.740Z,3048.00
2018-12-25T09:04:48.731Z,2828.00
2018-12-25T09:05:48.721Z,2812.00
2018-12-25T09:06:48.724Z,2996.00
2018-12-25T09:07:48.699Z,3284.00
2018-12-25T09:08:48.687Z,3492.00
2018-12-25T09:09:48.679Z,3424.00
2018-12-25T09:10:48.668Z,3392.00
2018-12-25T09:11:48.688Z,3504.00
2018-12-25T09:12:48.647Z,3404.00
2018-12-25T09:13:48.636Z,3148.00
2018-12-25T09:14:48.622Z,3024.00
2018-12-25T09:15:48.616Z,2948.00
2018-12-25T09:16:48.600Z,2960.00
2018-12-25T09:17:48.608Z,2928.00
2018-12-25T09:18:48.582Z,2804.00
2018-12-25T09:19:48.575Z,2876.00
2018-12-25T09:20:48.559Z,3108.00
2018-12-25T09:21:48.547Z,3392.00
2018-12-25T09:22:48.545Z,3644.00
2018-12-25T09:23:48.546Z,3836.00
2018-12-25T09:24:48.516Z,4020.00
2018-12-25T09:25:48.504Z,4216.00
2018-12-25T09:26:48.494Z,4556.00
2018-12-25T09:27:48.504Z,5092.00
2018-12-25T09:28:48.473Z,5708.00
2018-12-25T09:29:48.462Z,6204.00
2018-12-25T09:30:48.455Z,6200.00
2018-12-25T09:31:48.441Z,5824.00
2018-12-25T09:32:48.434Z,5660.00
2018-12-25T09:33:48.435Z,5576.00
2018-12-25T09:34:48.413Z,5352.00
2018-12-25T09:35:48.401Z,5308.00
2018-12-25T09:36:48.389Z,5504.00
2018-12-25T09:37:48.377Z,5768.00
2018-12-25T09:38:48.403Z,5728.00
2018-12-25T09:39:48.356Z,5640.00
2018-12-25T09:40:48.441Z,5556.00
2018-12-25T09:41:48.334Z,5336.00
2018-12-25T09:42:48.326Z,4884.00
2018-12-25T09:43:48.313Z,4280.00
2018-12-25T09:44:48.324Z,3856.00
2018-12-25T09:45:48.292Z,3692.00
2018-12-25T09:46:48.284Z,3712.00
2018-12-25T09:47:48.274Z,3700.00
2018-12-25T09:48:48.274Z,3752.00
2018-12-25T09:49:48.267Z,3864.00
2018-12-25T09:50:48.239Z,4116.00
2018-12-25T09:51:54.457Z,4720.00
2018-12-25T09:52:49.215Z,5756.00
2018-12-25T09:53:48.205Z,6412.00
2018-12-25T09:54:48.215Z,7136.00
2018-12-25T09:55:48.186Z,7296.00
2018-12-25T09:56:48.175Z,7076.00
2018-12-25T09:57:48.163Z,6736.00
2018-12-25T09:58:48.155Z,6720.00
2018-12-25T09:59:48.158Z,6540.00
2018-12-25T10:00:48.144Z,6572.00
2018-12-25T10:01:48.120Z,6744.00
2018-12-25T10:02:48.116Z,6536.00
2018-12-25T10:03:48.100Z,6296.00
2018-12-25T10:04:48.088Z,5928.00
2018-12-25T10:05:48.095Z,5780.00
2018-12-25T10:06:48.071Z,6400.00
2018-12-25T10:07:48.058Z,6384.00
2018-12-25T10:08:48.071Z,5912.00
2018-12-25T10:09:48.035Z,6204.00
2018-12-25T10:10:48.023Z,6268.00
2018-12-25T10:11:48.015Z,6368.00
2018-12-25T10:12:48.002Z,6436.00
2018-12-25T10:13:47.994Z,6588.00
2018-12-25T10:14:47.995Z,6456.00
2018-12-25T10:15:47.984Z,6216.00
2018-12-25T10:16:49.802Z,5952.00
2018-12-25T10:17:47.950Z,6252.00
2018-12-25T10:18:47.936Z,6160.00
2018-12-25T10:19:47.940Z,5488.00
2018-12-25T10:20:47.915Z,5424.00
2018-12-25T10:21:47.906Z,5192.00
2018-12-25T10:22:47.907Z,4776.00
2018-12-25T10:23:47.884Z,4504.00
2018-12-25T10:24:47.871Z,5216.00
2018-12-25T10:25:47.879Z,5956.00
2018-12-25T10:26:47.851Z,6024.00
2018-12-25T10:27:47.856Z,6456.00
2018-12-25T10:28:47.844Z,6388.00
2018-12-25T10:29:47.818Z,6712.00
2018-12-25T10:30:47.808Z,7292.00
2018-12-25T10:31:47.798Z,7600.00
2018-12-25T10:32:47.799Z,7448.00
2018-12-25T10:33:47.792Z,7316.00
2018-12-25T10:34:47.765Z,7928.00
2018-12-25T10:35:47.754Z,8088.00
2018-12-25T10:36:47.756Z,7848.00
2018-12-25T10:37:47.733Z,7692.00
2018-12-25T10:38:47.742Z,7724.00
2018-12-25T10:39:47.712Z,7016.00
2018-12-25T10:40:47.700Z,6648.00
2018-12-25T10:41:47.687Z,6216.00
2018-12-25T10:42:47.675Z,6076.00
2018-12-25T10:43:47.666Z,6316.00
2018-12-25T10:44:47.673Z,6608.00
2018-12-25T10:45:47.645Z,6952.00
2018-12-25T10:46:47.633Z,7348.00
2018-12-25T10:47:47.621Z,7308.00
2018-12-25T10:48:47.615Z,7140.00
2018-12-25T10:49:47.617Z,6836.00
2018-12-25T10:50:47.589Z,6676.00
2018-12-25T10:51:47.579Z,6996.00
2018-12-25T10:52:47.571Z,7224.00
2018-12-25T10:53:47.558Z,7048.00
2018-12-25T10:54:47.586Z,6968.00
2018-12-25T10:55:47.535Z,7208.00
2018-12-25T10:56:47.528Z,7464.00
2018-12-25T10:57:47.516Z,7044.00
2018-12-25T10:58:47.501Z,6780.00
2018-12-25T10:59:47.489Z,6720.00
2018-12-25T11:00:47.497Z,6696.00
2018-12-25T11:01:47.471Z,6000.00
2018-12-25T11:02:47.461Z,6260.00
2018-12-25T11:03:47.456Z,6172.00
2018-12-25T11:04:47.434Z,5500.00
2018-12-25T11:05:47.438Z,5216.00
2018-12-25T11:06:47.437Z,4908.00
2018-12-25T11:07:47.402Z,5184.00
2018-12-25T11:08:47.391Z,6048.00
2018-12-25T11:09:47.382Z,6292.00
2018-12-25T11:10:47.369Z,6132.00
2018-12-25T11:11:47.362Z,6256.00
2018-12-25T11:12:47.366Z,6840.00
2018-12-25T11:13:47.337Z,6932.00
2018-12-25T11:14:47.329Z,6240.00
2018-12-25T11:15:47.315Z,5404.00
2018-12-25T11:16:47.305Z,5664.00
2018-12-25T11:17:47.308Z,6192.00
2018-12-25T11:18:49.189Z,5640.00
2018-12-25T11:19:47.271Z,4824.00
2018-12-25T11:20:47.263Z,4796.00
2018-12-25T11:21:47.253Z,6284.00
2018-12-25T11:22:47.280Z,7416.00
2018-12-25T11:23:47.231Z,6984.00
2018-12-25T11:24:47.218Z,6728.00
2018-12-25T11:25:47.206Z,6844.00
2018-12-25T11:26:47.197Z,6336.00
2018-12-25T11:27:47.185Z,7704.00
2018-12-25T11:28:47.193Z,7524.00
2018-12-25T11:29:47.200Z,8012.00
2018-12-25T11:30:47.157Z,7508.00
2018-12-25T11:31:47.143Z,6888.00
2018-12-25T11:32:47.135Z,7792.00
2018-12-25T11:33:47.120Z,8712.00
2018-12-25T11:34:47.112Z,8416.00
2018-12-25T11:35:47.123Z,8112.00
2018-12-25T11:36:47.087Z,8032.00
2018-12-25T11:37:47.077Z,7784.00
2018-12-25T11:38:47.065Z,8328.00
2018-12-25T11:39:47.057Z,9376.00
2018-12-25T11:40:47.045Z,9612.00
2018-12-25T11:41:47.048Z,9192.00
2018-12-25T11:42:47.039Z,10072.00
2018-12-25T11:43:47.011Z,11320.00
2018-12-25T11:44:47.002Z,10164.00
2018-12-25T11:45:46.989Z,8924.00
2018-12-25T11:46:46.980Z,8556.00
2018-12-25T11:47:46.982Z,8644.00
2018-12-25T11:48:46.979Z,8292.00
2018-12-25T11:49:46.945Z,9820.00
2018-12-25T11:50:46.936Z,9496.00
2018-12-25T11:51:46.924Z,8924.00
2018-12-25T11:52:46.914Z,9276.00
2018-12-25T11:53:46.905Z,8736.00
2018-12-25T11:54:46.929Z,9520.00
2018-12-25T11:55:46.879Z,8632.00
2018-12-25T11:56:46.868Z,6596.00
2018-12-25T11:57:46.858Z,6652.00
2018-12-25T11:58:46.848Z,7296.00
2018-12-25T11:59:46.838Z,6924.00
2018-12-25T12:00:46.837Z,4892.00
2018-12-25T12:01:46.815Z,4308.00
2018-12-25T12:02:46.821Z,4044.00
2018-12-25T12:03:46.791Z,4128.00
2018-12-25T12:04:46.781Z,5280.00
2018-12-25T12:05:46.789Z,5920.00
2018-12-25T12:06:46.766Z,6832.00
2018-12-25T12:07:46.775Z,6016.00
2018-12-25T12:08:46.736Z,6268.00
2018-12-25T12:09:46.728Z,7032.00
2018-12-25T12:10:46.717Z,7128.00
2018-12-25T12:11:46.710Z,6476.00
2018-12-25T12:12:46.696Z,7108.00
2018-12-25T12:13:46.697Z,7288.00
2018-12-25T12:14:46.673Z,7484.00
2018-12-25T12:15:46.662Z,7188.00
2018-12-25T12:16:46.651Z,6872.00
2018-12-25T12:17:46.673Z,6172.00
2018-12-25T12:18:46.629Z,6728.00
2018-12-25T12:19:46.618Z,8584.00
2018-12-25T12:20:46.608Z,9664.00
2018-12-25T12:21:46.597Z,10580.00
2018-12-25T12:22:46.586Z,10104.00
2018-12-25T12:23:46.590Z,9360.00
2018-12-25T12:24:46.561Z,8584.00
2018-12-25T12:25:46.570Z,7512.00
2018-12-25T12:26:46.540Z,6480.00
2018-12-25T12:27:46.531Z,5860.00
2018-12-25T12:28:46.532Z,5768.00
2018-12-25T12:29:46.510Z,5160.00
2018-12-25T12:30:46.495Z,4596.00
2018-12-25T12:31:46.511Z,4188.00
2018-12-25T12:32:46.475Z,4328.00
2018-12-25T12:33:46.462Z,4200.00
2018-12-25T12:34:46.454Z,3556.00
2018-12-25T12:35:46.448Z,3240.00
2018-12-25T12:36:46.438Z,3336.00
2018-12-25T12:37:46.459Z,5124.00
2018-12-25T12:38:46.407Z,3900.00
2018-12-25T12:39:46.399Z,2328.00
2018-12-25T12:40:46.386Z,3140.00
2018-12-25T12:41:46.375Z,4628.00
2018-12-25T12:42:46.372Z,4440.00
2018-12-25T12:43:46.367Z,3756.00
2018-12-25T12:44:46.343Z,3068.00
2018-12-25T12:45:46.334Z,2456.00
2018-12-25T12:46:46.323Z,2564.00
2018-12-25T12:47:46.325Z,3124.00